N6196P KSAN-KLAX
Flight info
| Callsign | N6196P |
|---|---|
| Flight time | 0h 43m |
| Altitude | 6000 |
| Route | DCT OCN V23 SLI DCT |
| Aircraft | PA24/L-SDGRY/S |
Departure
| Time | 2026-04-25 02:39 |
|---|---|
| Airport | San Diego International Airport (KSAN) |
Arrival
| Time | 2026-04-25 03:22 |
|---|---|
| Airport | Los Angeles International Airport (KLAX) |
| Time | Latitude | Longitude | Altitude | Speed | Heading |
|---|---|---|---|---|---|
| 2026-04-25 02:24 | 32.73422 | -117.17884 | 21 ft | 0 kts | 18° |
| 2026-04-25 02:36 | 32.73432 | -117.17894 | 21 ft | 6 kts | 263° |
| 2026-04-25 02:36 | 32.73375 | -117.17943 | 21 ft | 13 kts | 200° |
| 2026-04-25 02:36 | 32.73272 | -117.17980 | 18 ft | 15 kts | 193° |
| 2026-04-25 02:36 | 32.73206 | -117.17878 | 16 ft | 20 kts | 110° |
| 2026-04-25 02:37 | 32.73169 | -117.17722 | 18 ft | 20 kts | 105° |
| 2026-04-25 02:37 | 32.73139 | -117.17602 | 17 ft | 15 kts | 114° |
| 2026-04-25 02:37 | 32.73103 | -117.17557 | 16 ft | 0 kts | 148° |
| 2026-04-25 02:37 | 32.73072 | -117.17534 | 17 ft | 11 kts | 151° |
| 2026-04-25 02:38 | 32.73017 | -117.17575 | 17 ft | 15 kts | 284° |
| 2026-04-25 02:38 | 32.73076 | -117.17836 | 16 ft | 64 kts | 289° |
| 2026-04-25 02:38 | 32.73236 | -117.18472 | 113 ft | 91 kts | 279° |
| 2026-04-25 02:38 | 32.73410 | -117.19207 | 398 ft | 92 kts | 286° |
| 2026-04-25 02:39 | 32.73752 | -117.19843 | 692 ft | 95 kts | 310° |
| 2026-04-25 02:39 | 32.74263 | -117.20371 | 1049 ft | 96 kts | 310° |
| 2026-04-25 02:39 | 32.74738 | -117.20913 | 1368 ft | 97 kts | 316° |
| 2026-04-25 02:39 | 32.75278 | -117.21413 | 1682 ft | 98 kts | 316° |
| 2026-04-25 02:40 | 32.75808 | -117.21927 | 2017 ft | 98 kts | 315° |
| 2026-04-25 02:40 | 32.76337 | -117.22450 | 2326 ft | 99 kts | 314° |
| 2026-04-25 02:40 | 32.76863 | -117.22979 | 2633 ft | 100 kts | 314° |
| 2026-04-25 02:40 | 32.77364 | -117.23531 | 2910 ft | 100 kts | 315° |
| 2026-04-25 02:41 | 32.77928 | -117.24038 | 3153 ft | 102 kts | 322° |
| 2026-04-25 02:41 | 32.78546 | -117.24448 | 3408 ft | 102 kts | 330° |
| 2026-04-25 02:41 | 32.79231 | -117.24736 | 3641 ft | 105 kts | 337° |
| 2026-04-25 02:41 | 32.79881 | -117.25097 | 3888 ft | 104 kts | 332° |
| 2026-04-25 02:42 | 32.80572 | -117.25377 | 4144 ft | 104 kts | 338° |
| 2026-04-25 02:42 | 32.81262 | -117.25624 | 4387 ft | 105 kts | 338° |
| 2026-04-25 02:42 | 32.81963 | -117.25881 | 4628 ft | 105 kts | 336° |
| 2026-04-25 02:42 | 32.82655 | -117.26150 | 4870 ft | 105 kts | 335° |
| 2026-04-25 02:43 | 32.83347 | -117.26416 | 5103 ft | 104 kts | 335° |
| 2026-04-25 02:43 | 32.84035 | -117.26681 | 5337 ft | 103 kts | 336° |
| 2026-04-25 02:43 | 32.84727 | -117.26942 | 5548 ft | 105 kts | 336° |
| 2026-04-25 02:43 | 32.85418 | -117.27200 | 5784 ft | 103 kts | 336° |
| 2026-04-25 02:44 | 32.86103 | -117.27455 | 5971 ft | 106 kts | 336° |
| 2026-04-25 02:44 | 32.86859 | -117.27743 | 6006 ft | 122 kts | 336° |
| 2026-04-25 02:44 | 32.87709 | -117.28074 | 6010 ft | 134 kts | 336° |
| 2026-04-25 02:44 | 32.88621 | -117.28445 | 6015 ft | 142 kts | 336° |
| 2026-04-25 02:45 | 32.89528 | -117.28818 | 5977 ft | 133 kts | 336° |
| 2026-04-25 02:45 | 32.90361 | -117.29159 | 5942 ft | 120 kts | 335° |
| 2026-04-25 02:45 | 32.91107 | -117.29457 | 5966 ft | 106 kts | 335° |
| 2026-04-25 02:45 | 32.91815 | -117.29740 | 5993 ft | 114 kts | 335° |
| 2026-04-25 02:46 | 32.92614 | -117.30071 | 6033 ft | 129 kts | 335° |
| 2026-04-25 02:46 | 32.93519 | -117.30453 | 5993 ft | 145 kts | 336° |
| 2026-04-25 02:46 | 32.94506 | -117.30843 | 5962 ft | 154 kts | 338° |
| 2026-04-25 02:46 | 32.95534 | -117.31246 | 5986 ft | 156 kts | 337° |
| 2026-04-25 02:47 | 32.96563 | -117.31655 | 5980 ft | 159 kts | 337° |
| 2026-04-25 02:47 | 32.97621 | -117.32065 | 5980 ft | 160 kts | 338° |
| 2026-04-25 02:47 | 32.98684 | -117.32465 | 5975 ft | 162 kts | 338° |
| 2026-04-25 02:47 | 32.99763 | -117.32874 | 5976 ft | 162 kts | 338° |
| 2026-04-25 02:48 | 33.00838 | -117.33287 | 5974 ft | 162 kts | 338° |
| 2026-04-25 02:48 | 33.01919 | -117.33700 | 5973 ft | 163 kts | 338° |
| 2026-04-25 02:48 | 33.02997 | -117.34110 | 5976 ft | 163 kts | 338° |
| 2026-04-25 02:48 | 33.04080 | -117.34524 | 5976 ft | 163 kts | 338° |
| 2026-04-25 02:49 | 33.05164 | -117.34935 | 5974 ft | 164 kts | 338° |
| 2026-04-25 02:49 | 33.06247 | -117.35351 | 5974 ft | 164 kts | 338° |
| 2026-04-25 02:49 | 33.07333 | -117.35770 | 5976 ft | 164 kts | 338° |
| 2026-04-25 02:49 | 33.08416 | -117.36187 | 5975 ft | 164 kts | 338° |
| 2026-04-25 02:50 | 33.09498 | -117.36605 | 5972 ft | 164 kts | 338° |
| 2026-04-25 02:50 | 33.10582 | -117.37029 | 5975 ft | 164 kts | 338° |
| 2026-04-25 02:50 | 33.11665 | -117.37454 | 5975 ft | 164 kts | 338° |
| 2026-04-25 02:50 | 33.12744 | -117.37875 | 5976 ft | 163 kts | 338° |
| 2026-04-25 02:51 | 33.13824 | -117.38304 | 5965 ft | 163 kts | 338° |
| 2026-04-25 02:51 | 33.14902 | -117.38730 | 5963 ft | 163 kts | 338° |
| 2026-04-25 02:51 | 33.15983 | -117.39157 | 5967 ft | 164 kts | 338° |
| 2026-04-25 02:51 | 33.17068 | -117.39585 | 5965 ft | 164 kts | 338° |
| 2026-04-25 02:52 | 33.18156 | -117.39990 | 5961 ft | 164 kts | 339° |
| 2026-04-25 02:52 | 33.19253 | -117.40375 | 5953 ft | 165 kts | 339° |
| 2026-04-25 02:52 | 33.20341 | -117.40744 | 5948 ft | 165 kts | 340° |
| 2026-04-25 02:52 | 33.21087 | -117.40992 | 5953 ft | 164 kts | 341° |
| 2026-04-25 02:53 | 33.22192 | -117.41346 | 5951 ft | 165 kts | 341° |
| 2026-04-25 02:53 | 33.23663 | -117.41820 | 5953 ft | 164 kts | 340° |
| 2026-04-25 02:53 | 33.24670 | -117.42452 | 5916 ft | 165 kts | 319° |
| 2026-04-25 02:53 | 33.25538 | -117.43325 | 5928 ft | 161 kts | 314° |
| 2026-04-25 02:54 | 33.26087 | -117.43943 | 5945 ft | 160 kts | 311° |
| 2026-04-25 02:54 | 33.26864 | -117.44880 | 5955 ft | 158 kts | 311° |
| 2026-04-25 02:54 | 33.27640 | -117.45821 | 5958 ft | 159 kts | 313° |
| 2026-04-25 02:54 | 33.28444 | -117.46707 | 5960 ft | 159 kts | 314° |
| 2026-04-25 02:55 | 33.29258 | -117.47600 | 5959 ft | 159 kts | 314° |
| 2026-04-25 02:55 | 33.30057 | -117.48519 | 5959 ft | 159 kts | 311° |
| 2026-04-25 02:55 | 33.30819 | -117.49472 | 5954 ft | 159 kts | 310° |
| 2026-04-25 02:55 | 33.31611 | -117.50394 | 5957 ft | 159 kts | 313° |
| 2026-04-25 02:56 | 33.32418 | -117.51303 | 5957 ft | 159 kts | 313° |
| 2026-04-25 02:56 | 33.33222 | -117.52218 | 5957 ft | 159 kts | 313° |
| 2026-04-25 02:56 | 33.34023 | -117.53132 | 5954 ft | 159 kts | 313° |
| 2026-04-25 02:56 | 33.34813 | -117.54043 | 5952 ft | 159 kts | 313° |
| 2026-04-25 02:57 | 33.35618 | -117.54962 | 5956 ft | 159 kts | 313° |
| 2026-04-25 02:57 | 33.36408 | -117.55895 | 5952 ft | 159 kts | 313° |
| 2026-04-25 02:57 | 33.37198 | -117.56802 | 5949 ft | 157 kts | 313° |
| 2026-04-25 02:57 | 33.37977 | -117.57709 | 5948 ft | 156 kts | 312° |
| 2026-04-25 02:58 | 33.38749 | -117.58616 | 5943 ft | 156 kts | 312° |
| 2026-04-25 02:58 | 33.39520 | -117.59510 | 5944 ft | 155 kts | 313° |
| 2026-04-25 02:58 | 33.40301 | -117.60399 | 5940 ft | 155 kts | 313° |
| 2026-04-25 02:58 | 33.41076 | -117.61296 | 5943 ft | 155 kts | 312° |
| 2026-04-25 02:59 | 33.41854 | -117.62187 | 5939 ft | 156 kts | 312° |
| 2026-04-25 02:59 | 33.42631 | -117.63096 | 5937 ft | 156 kts | 313° |
| 2026-04-25 02:59 | 33.43415 | -117.63991 | 5941 ft | 155 kts | 313° |
| 2026-04-25 02:59 | 33.44188 | -117.64888 | 5933 ft | 155 kts | 312° |
| 2026-04-25 03:00 | 33.44963 | -117.65786 | 5929 ft | 155 kts | 312° |
| 2026-04-25 03:00 | 33.45733 | -117.66690 | 5935 ft | 155 kts | 312° |
| 2026-04-25 03:00 | 33.46480 | -117.67620 | 5935 ft | 155 kts | 309° |
| 2026-04-25 03:00 | 33.47200 | -117.68578 | 5936 ft | 154 kts | 308° |
| 2026-04-25 03:01 | 33.47891 | -117.69513 | 5938 ft | 155 kts | 308° |
| 2026-04-25 03:01 | 33.48617 | -117.70460 | 5950 ft | 154 kts | 311° |
| 2026-04-25 03:01 | 33.49369 | -117.71379 | 5945 ft | 155 kts | 311° |
| 2026-04-25 03:01 | 33.50127 | -117.72306 | 5943 ft | 156 kts | 311° |
| 2026-04-25 03:02 | 33.50882 | -117.73223 | 5943 ft | 156 kts | 311° |
| 2026-04-25 03:02 | 33.51662 | -117.74186 | 5789 ft | 164 kts | 311° |
| 2026-04-25 03:02 | 33.52467 | -117.75179 | 5579 ft | 171 kts | 311° |
| 2026-04-25 03:02 | 33.53303 | -117.76208 | 5389 ft | 175 kts | 311° |
| 2026-04-25 03:03 | 33.54153 | -117.77282 | 5108 ft | 180 kts | 309° |
| 2026-04-25 03:03 | 33.55009 | -117.78406 | 4781 ft | 185 kts | 313° |
| 2026-04-25 03:03 | 33.55954 | -117.79455 | 4489 ft | 186 kts | 315° |
| 2026-04-25 03:03 | 33.56904 | -117.80515 | 4177 ft | 186 kts | 315° |
| 2026-04-25 03:04 | 33.57869 | -117.81555 | 3989 ft | 181 kts | 317° |
| 2026-04-25 03:04 | 33.58771 | -117.82529 | 4013 ft | 171 kts | 315° |
| 2026-04-25 03:04 | 33.59636 | -117.83485 | 3999 ft | 167 kts | 313° |
| 2026-04-25 03:05 | 33.61239 | -117.85473 | 3996 ft | 163 kts | 311° |
| 2026-04-25 03:05 | 33.62034 | -117.86434 | 3994 ft | 162 kts | 313° |
| 2026-04-25 03:05 | 33.62832 | -117.87389 | 3997 ft | 162 kts | 311° |
| 2026-04-25 03:05 | 33.63604 | -117.88347 | 3998 ft | 162 kts | 311° |
| 2026-04-25 03:06 | 33.64398 | -117.89308 | 4000 ft | 162 kts | 311° |
| 2026-04-25 03:06 | 33.65168 | -117.90269 | 3998 ft | 161 kts | 311° |
| 2026-04-25 03:06 | 33.65950 | -117.91229 | 3997 ft | 161 kts | 312° |
| 2026-04-25 03:06 | 33.66738 | -117.92184 | 3996 ft | 161 kts | 311° |
| 2026-04-25 03:07 | 33.67519 | -117.93156 | 3997 ft | 161 kts | 312° |
| 2026-04-25 03:07 | 33.68306 | -117.94118 | 3996 ft | 161 kts | 312° |
| 2026-04-25 03:07 | 33.69087 | -117.95069 | 4002 ft | 160 kts | 313° |
| 2026-04-25 03:07 | 33.69886 | -117.96014 | 3998 ft | 160 kts | 312° |
| 2026-04-25 03:08 | 33.70669 | -117.96972 | 3998 ft | 161 kts | 313° |
| 2026-04-25 03:08 | 33.71478 | -117.97899 | 3951 ft | 161 kts | 314° |
| 2026-04-25 03:08 | 33.72285 | -117.98832 | 3953 ft | 161 kts | 314° |
| 2026-04-25 03:08 | 33.73093 | -117.99776 | 3953 ft | 162 kts | 314° |
| 2026-04-25 03:09 | 33.73908 | -118.00706 | 3953 ft | 162 kts | 313° |
| 2026-04-25 03:09 | 33.74709 | -118.01656 | 3949 ft | 162 kts | 313° |
| 2026-04-25 03:09 | 33.75498 | -118.02622 | 3950 ft | 162 kts | 311° |
| 2026-04-25 03:09 | 33.76298 | -118.03567 | 3951 ft | 161 kts | 314° |
| 2026-04-25 03:10 | 33.77097 | -118.04519 | 3950 ft | 161 kts | 312° |
| 2026-04-25 03:10 | 33.77892 | -118.05474 | 3950 ft | 161 kts | 314° |
| 2026-04-25 03:10 | 33.78697 | -118.06414 | 3952 ft | 162 kts | 313° |
| 2026-04-25 03:10 | 33.79506 | -118.07331 | 3949 ft | 162 kts | 320° |
| 2026-04-25 03:11 | 33.80485 | -118.08012 | 3952 ft | 163 kts | 330° |
| 2026-04-25 03:11 | 33.81502 | -118.08618 | 3954 ft | 163 kts | 334° |
| 2026-04-25 03:11 | 33.82555 | -118.09136 | 3952 ft | 164 kts | 335° |
| 2026-04-25 03:11 | 33.83593 | -118.09702 | 3979 ft | 164 kts | 334° |
| 2026-04-25 03:12 | 33.84570 | -118.10225 | 3980 ft | 164 kts | 335° |
| 2026-04-25 03:12 | 33.85633 | -118.10754 | 3982 ft | 165 kts | 335° |
| 2026-04-25 03:12 | 33.86677 | -118.11330 | 3978 ft | 165 kts | 334° |
| 2026-04-25 03:12 | 33.87731 | -118.11870 | 3979 ft | 165 kts | 335° |
| 2026-04-25 03:13 | 33.88681 | -118.12617 | 3976 ft | 164 kts | 313° |
| 2026-04-25 03:13 | 33.89479 | -118.13587 | 3982 ft | 161 kts | 314° |
| 2026-04-25 03:13 | 33.90277 | -118.14507 | 3960 ft | 156 kts | 314° |
| 2026-04-25 03:13 | 33.91051 | -118.15386 | 3960 ft | 148 kts | 315° |
| 2026-04-25 03:14 | 33.91754 | -118.16203 | 3961 ft | 133 kts | 314° |
| 2026-04-25 03:14 | 33.92388 | -118.16938 | 3977 ft | 121 kts | 313° |
| 2026-04-25 03:14 | 33.92985 | -118.17622 | 3981 ft | 116 kts | 314° |
| 2026-04-25 03:14 | 33.93541 | -118.18232 | 3973 ft | 101 kts | 315° |
| 2026-04-25 03:15 | 33.94035 | -118.18791 | 3965 ft | 91 kts | 314° |
| 2026-04-25 03:15 | 33.94475 | -118.19290 | 3952 ft | 83 kts | 314° |
| 2026-04-25 03:15 | 33.94877 | -118.19751 | 3938 ft | 79 kts | 310° |
| 2026-04-25 03:15 | 33.95186 | -118.20352 | 3769 ft | 93 kts | 286° |
| 2026-04-25 03:16 | 33.95294 | -118.21143 | 3595 ft | 100 kts | 272° |
| 2026-04-25 03:16 | 33.95316 | -118.22004 | 3431 ft | 103 kts | 268° |
| 2026-04-25 03:16 | 33.95320 | -118.22860 | 3291 ft | 103 kts | 269° |
| 2026-04-25 03:16 | 33.95306 | -118.23729 | 3130 ft | 104 kts | 266° |
| 2026-04-25 03:17 | 33.95275 | -118.24584 | 2963 ft | 104 kts | 265° |
| 2026-04-25 03:17 | 33.95220 | -118.25455 | 2792 ft | 104 kts | 264° |
| 2026-04-25 03:17 | 33.95138 | -118.26312 | 2654 ft | 102 kts | 260° |
| 2026-04-25 03:17 | 33.95005 | -118.27162 | 2494 ft | 103 kts | 258° |
| 2026-04-25 03:18 | 33.94871 | -118.28007 | 2355 ft | 102 kts | 259° |
| 2026-04-25 03:18 | 33.94753 | -118.28839 | 2211 ft | 98 kts | 259° |
| 2026-04-25 03:18 | 33.94634 | -118.29617 | 2020 ft | 94 kts | 260° |
| 2026-04-25 03:18 | 33.94517 | -118.30389 | 1806 ft | 93 kts | 260° |
| 2026-04-25 03:19 | 33.94420 | -118.31162 | 1606 ft | 91 kts | 263° |
| 2026-04-25 03:19 | 33.94362 | -118.31917 | 1417 ft | 90 kts | 263° |
| 2026-04-25 03:19 | 33.94303 | -118.32662 | 1249 ft | 89 kts | 263° |
| 2026-04-25 03:19 | 33.94239 | -118.33382 | 1034 ft | 86 kts | 262° |
| 2026-04-25 03:20 | 33.94167 | -118.34076 | 839 ft | 82 kts | 262° |
| 2026-04-25 03:20 | 33.94102 | -118.34748 | 760 ft | 80 kts | 259° |
| 2026-04-25 03:20 | 33.94032 | -118.35420 | 706 ft | 79 kts | 261° |
| 2026-04-25 03:20 | 33.93964 | -118.36086 | 642 ft | 83 kts | 261° |
| 2026-04-25 03:21 | 33.93884 | -118.36778 | 546 ft | 84 kts | 263° |
| 2026-04-25 03:21 | 33.93820 | -118.37480 | 357 ft | 82 kts | 262° |
| 2026-04-25 03:21 | 33.93753 | -118.38144 | 208 ft | 77 kts | 259° |
| 2026-04-25 03:21 | 33.93693 | -118.38712 | 122 ft | 54 kts | 261° |
| 2026-04-25 03:22 | 33.93649 | -118.39052 | 118 ft | 28 kts | 256° |
| 2026-04-25 03:22 | 33.93559 | -118.39098 | 120 ft | 10 kts | 199° |
| 2026-04-25 03:22 | 33.93554 | -118.39101 | 120 ft | 0 kts | 212° |
| 2026-04-25 03:23 | 33.93527 | -118.39136 | 119 ft | 12 kts | 249° |
| 2026-04-25 03:24 | 33.93514 | -118.39258 | 120 ft | 17 kts | 262° |
| 2026-04-25 03:24 | 33.93495 | -118.39429 | 120 ft | 24 kts | 263° |
| 2026-04-25 03:24 | 33.93473 | -118.39642 | 120 ft | 27 kts | 262° |
| 2026-04-25 03:24 | 33.93447 | -118.39811 | 118 ft | 10 kts | 213° |
| 2026-04-25 03:25 | 33.93366 | -118.39823 | 119 ft | 13 kts | 179° |
| 2026-04-25 03:25 | 33.93290 | -118.39836 | 120 ft | 0 kts | 217° |